sensor_id;sensor_type;location;lat;lon;timestamp;P1;durP1;ratioP1;P2;durP2;ratioP2
12910;SDS011;6523;49.758;6.120;2022-09-09T00:03:57;2.40;;;1.10;;
12910;SDS011;6523;49.758;6.120;2022-09-09T00:06:42;3.47;;;1.10;;
12910;SDS011;6523;49.758;6.120;2022-09-09T00:09:19;2.80;;;1.20;;
12910;SDS011;6523;49.758;6.120;2022-09-09T00:12:33;2.93;;;1.70;;
12910;SDS011;6523;49.758;6.120;2022-09-09T00:14:54;4.07;;;1.40;;
12910;SDS011;6523;49.758;6.120;2022-09-09T00:20:32;4.00;;;1.60;;
12910;SDS011;6523;49.758;6.120;2022-09-09T00:23:00;4.73;;;1.90;;
12910;SDS011;6523;49.758;6.120;2022-09-09T00:28:22;2.77;;;1.40;;
12910;SDS011;6523;49.758;6.120;2022-09-09T00:30:50;3.17;;;2.10;;
12910;SDS011;6523;49.758;6.120;2022-09-09T00:33:20;2.50;;;1.30;;
12910;SDS011;6523;49.758;6.120;2022-09-09T00:35:49;2.10;;;1.60;;
12910;SDS011;6523;49.758;6.120;2022-09-09T00:43:37;4.10;;;1.50;;
12910;SDS011;6523;49.758;6.120;2022-09-09T00:51:37;4.53;;;1.23;;
12910;SDS011;6523;49.758;6.120;2022-09-09T00:57:28;3.63;;;1.60;;
12910;SDS011;6523;49.758;6.120;2022-09-09T01:02:53;2.20;;;1.23;;
12910;SDS011;6523;49.758;6.120;2022-09-09T01:06:00;5.47;;;1.53;;
12910;SDS011;6523;49.758;6.120;2022-09-09T01:11:05;5.07;;;1.03;;
12910;SDS011;6523;49.758;6.120;2022-09-09T01:13:35;2.80;;;1.30;;
12910;SDS011;6523;49.758;6.120;2022-09-09T01:16:03;6.50;;;2.20;;
12910;SDS011;6523;49.758;6.120;2022-09-09T01:18:34;3.70;;;1.53;;
12910;SDS011;6523;49.758;6.120;2022-09-09T01:21:21;2.43;;;1.23;;
12910;SDS011;6523;49.758;6.120;2022-09-09T01:26:48;4.57;;;1.57;;
12910;SDS011;6523;49.758;6.120;2022-09-09T01:29:17;3.00;;;1.60;;
12910;SDS011;6523;49.758;6.120;2022-09-09T01:31:53;3.37;;;1.60;;
12910;SDS011;6523;49.758;6.120;2022-09-09T01:34:20;3.97;;;1.17;;
12910;SDS011;6523;49.758;6.120;2022-09-09T01:36:57;5.03;;;1.50;;
12910;SDS011;6523;49.758;6.120;2022-09-09T01:39:29;2.97;;;1.30;;
12910;SDS011;6523;49.758;6.120;2022-09-09T01:41:56;3.40;;;1.50;;
12910;SDS011;6523;49.758;6.120;2022-09-09T01:44:22;4.77;;;1.53;;
12910;SDS011;6523;49.758;6.120;2022-09-09T01:46:49;3.87;;;1.50;;
12910;SDS011;6523;49.758;6.120;2022-09-09T01:49:16;2.53;;;1.20;;
12910;SDS011;6523;49.758;6.120;2022-09-09T01:51:42;3.93;;;1.47;;
12910;SDS011;6523;49.758;6.120;2022-09-09T01:54:08;3.17;;;1.23;;
12910;SDS011;6523;49.758;6.120;2022-09-09T01:56:37;5.07;;;1.77;;
12910;SDS011;6523;49.758;6.120;2022-09-09T02:02:32;4.10;;;1.30;;
12910;SDS011;6523;49.758;6.120;2022-09-09T02:07:48;3.53;;;1.50;;
12910;SDS011;6523;49.758;6.120;2022-09-09T02:10:17;2.90;;;1.37;;
12910;SDS011;6523;49.758;6.120;2022-09-09T02:12:53;4.87;;;1.53;;
12910;SDS011;6523;49.758;6.120;2022-09-09T02:15:33;1.90;;;1.33;;
12910;SDS011;6523;49.758;6.120;2022-09-09T02:18:07;2.63;;;1.50;;
12910;SDS011;6523;49.758;6.120;2022-09-09T02:20:37;3.87;;;1.83;;
12910;SDS011;6523;49.758;6.120;2022-09-09T02:23:04;3.37;;;1.40;;
12910;SDS011;6523;49.758;6.120;2022-09-09T02:25:35;3.67;;;1.83;;
12910;SDS011;6523;49.758;6.120;2022-09-09T02:28:03;3.83;;;1.70;;
12910;SDS011;6523;49.758;6.120;2022-09-09T02:30:32;6.17;;;1.73;;
12910;SDS011;6523;49.758;6.120;2022-09-09T02:33:00;2.97;;;1.60;;
12910;SDS011;6523;49.758;6.120;2022-09-09T02:35:28;4.53;;;2.10;;
12910;SDS011;6523;49.758;6.120;2022-09-09T02:37:56;4.67;;;1.53;;
12910;SDS011;6523;49.758;6.120;2022-09-09T02:40:26;3.67;;;1.57;;
12910;SDS011;6523;49.758;6.120;2022-09-09T02:42:53;5.00;;;1.80;;
12910;SDS011;6523;49.758;6.120;2022-09-09T02:45:21;2.80;;;1.57;;
12910;SDS011;6523;49.758;6.120;2022-09-09T02:47:50;5.77;;;1.50;;
12910;SDS011;6523;49.758;6.120;2022-09-09T02:50:32;4.40;;;1.80;;
12910;SDS011;6523;49.758;6.120;2022-09-09T02:58:34;6.03;;;2.00;;
12910;SDS011;6523;49.758;6.120;2022-09-09T03:01:01;7.67;;;1.90;;
12910;SDS011;6523;49.758;6.120;2022-09-09T03:03:27;4.80;;;1.80;;
12910;SDS011;6523;49.758;6.120;2022-09-09T03:05:55;3.17;;;2.00;;
12910;SDS011;6523;49.758;6.120;2022-09-09T03:08:21;2.27;;;1.80;;
12910;SDS011;6523;49.758;6.120;2022-09-09T03:10:47;7.80;;;2.10;;
12910;SDS011;6523;49.758;6.120;2022-09-09T03:13:13;5.07;;;2.10;;
12910;SDS011;6523;49.758;6.120;2022-09-09T03:15:40;7.93;;;2.03;;
12910;SDS011;6523;49.758;6.120;2022-09-09T03:18:06;4.93;;;2.10;;
12910;SDS011;6523;49.758;6.120;2022-09-09T03:20:32;8.50;;;2.23;;
12910;SDS011;6523;49.758;6.120;2022-09-09T03:22:59;4.23;;;2.00;;
12910;SDS011;6523;49.758;6.120;2022-09-09T03:25:25;7.43;;;2.03;;
12910;SDS011;6523;49.758;6.120;2022-09-09T03:27:52;8.07;;;2.67;;
12910;SDS011;6523;49.758;6.120;2022-09-09T03:30:23;7.27;;;2.30;;
12910;SDS011;6523;49.758;6.120;2022-09-09T03:32:50;6.07;;;2.43;;
12910;SDS011;6523;49.758;6.120;2022-09-09T03:35:15;5.80;;;2.50;;
12910;SDS011;6523;49.758;6.120;2022-09-09T03:37:41;4.50;;;2.20;;
12910;SDS011;6523;49.758;6.120;2022-09-09T03:40:07;4.83;;;2.63;;
12910;SDS011;6523;49.758;6.120;2022-09-09T03:42:35;5.40;;;2.50;;
12910;SDS011;6523;49.758;6.120;2022-09-09T03:45:02;4.97;;;2.40;;
12910;SDS011;6523;49.758;6.120;2022-09-09T03:47:32;6.53;;;2.37;;
12910;SDS011;6523;49.758;6.120;2022-09-09T03:49:58;5.30;;;2.63;;
12910;SDS011;6523;49.758;6.120;2022-09-09T03:52:23;4.27;;;2.20;;
12910;SDS011;6523;49.758;6.120;2022-09-09T03:54:51;9.73;;;2.40;;
12910;SDS011;6523;49.758;6.120;2022-09-09T03:57:17;6.67;;;2.20;;
12910;SDS011;6523;49.758;6.120;2022-09-09T03:59:43;6.97;;;2.07;;
12910;SDS011;6523;49.758;6.120;2022-09-09T04:02:08;9.70;;;2.93;;
12910;SDS011;6523;49.758;6.120;2022-09-09T04:04:35;6.83;;;2.57;;
12910;SDS011;6523;49.758;6.120;2022-09-09T04:07:00;6.73;;;2.30;;
12910;SDS011;6523;49.758;6.120;2022-09-09T04:09:26;6.00;;;2.33;;
12910;SDS011;6523;49.758;6.120;2022-09-09T04:11:52;7.93;;;2.30;;
12910;SDS011;6523;49.758;6.120;2022-09-09T04:14:18;8.43;;;2.63;;
12910;SDS011;6523;49.758;6.120;2022-09-09T04:16:44;9.07;;;2.47;;
12910;SDS011;6523;49.758;6.120;2022-09-09T04:19:11;5.93;;;1.90;;
12910;SDS011;6523;49.758;6.120;2022-09-09T04:21:39;5.77;;;2.20;;
12910;SDS011;6523;49.758;6.120;2022-09-09T04:24:08;5.33;;;2.30;;
12910;SDS011;6523;49.758;6.120;2022-09-09T04:26:34;7.20;;;2.17;;
12910;SDS011;6523;49.758;6.120;2022-09-09T04:29:01;4.77;;;1.63;;
12910;SDS011;6523;49.758;6.120;2022-09-09T04:31:28;7.73;;;1.70;;
12910;SDS011;6523;49.758;6.120;2022-09-09T04:33:54;7.53;;;2.70;;
12910;SDS011;6523;49.758;6.120;2022-09-09T04:36:20;5.10;;;1.77;;
12910;SDS011;6523;49.758;6.120;2022-09-09T04:38:46;6.83;;;2.03;;
12910;SDS011;6523;49.758;6.120;2022-09-09T04:41:13;4.53;;;2.03;;
12910;SDS011;6523;49.758;6.120;2022-09-09T04:43:41;8.10;;;2.07;;
12910;SDS011;6523;49.758;6.120;2022-09-09T04:46:07;8.43;;;2.20;;
12910;SDS011;6523;49.758;6.120;2022-09-09T04:48:32;9.13;;;2.50;;
12910;SDS011;6523;49.758;6.120;2022-09-09T04:50:59;6.60;;;1.97;;
12910;SDS011;6523;49.758;6.120;2022-09-09T04:53:34;6.37;;;1.77;;
12910;SDS011;6523;49.758;6.120;2022-09-09T04:56:10;10.53;;;2.40;;
12910;SDS011;6523;49.758;6.120;2022-09-09T04:58:37;5.07;;;2.00;;
12910;SDS011;6523;49.758;6.120;2022-09-09T05:01:07;8.40;;;1.97;;
12910;SDS011;6523;49.758;6.120;2022-09-09T05:03:43;5.43;;;1.80;;
12910;SDS011;6523;49.758;6.120;2022-09-09T05:06:13;6.47;;;2.27;;
12910;SDS011;6523;49.758;6.120;2022-09-09T05:08:41;4.87;;;2.17;;
12910;SDS011;6523;49.758;6.120;2022-09-09T05:11:17;5.77;;;2.00;;
12910;SDS011;6523;49.758;6.120;2022-09-09T05:13:49;5.90;;;2.10;;
12910;SDS011;6523;49.758;6.120;2022-09-09T05:16:15;4.97;;;2.07;;
12910;SDS011;6523;49.758;6.120;2022-09-09T05:18:41;5.10;;;2.07;;
12910;SDS011;6523;49.758;6.120;2022-09-09T05:21:08;4.93;;;2.17;;
12910;SDS011;6523;49.758;6.120;2022-09-09T05:23:34;7.33;;;2.33;;
12910;SDS011;6523;49.758;6.120;2022-09-09T05:26:01;4.53;;;2.00;;
12910;SDS011;6523;49.758;6.120;2022-09-09T05:28:27;12.07;;;2.83;;
12910;SDS011;6523;49.758;6.120;2022-09-09T05:31:00;4.23;;;2.50;;
12910;SDS011;6523;49.758;6.120;2022-09-09T05:33:33;5.33;;;2.07;;
12910;SDS011;6523;49.758;6.120;2022-09-09T05:36:01;5.70;;;2.17;;
12910;SDS011;6523;49.758;6.120;2022-09-09T05:38:29;7.80;;;2.60;;
12910;SDS011;6523;49.758;6.120;2022-09-09T05:40:55;5.70;;;2.60;;
12910;SDS011;6523;49.758;6.120;2022-09-09T05:43:22;5.27;;;2.10;;
12910;SDS011;6523;49.758;6.120;2022-09-09T05:45:57;8.53;;;2.53;;
12910;SDS011;6523;49.758;6.120;2022-09-09T05:48:29;5.90;;;2.03;;
12910;SDS011;6523;49.758;6.120;2022-09-09T05:50:56;6.27;;;1.90;;
12910;SDS011;6523;49.758;6.120;2022-09-09T05:53:22;7.83;;;2.13;;
12910;SDS011;6523;49.758;6.120;2022-09-09T05:55:47;9.50;;;3.00;;
12910;SDS011;6523;49.758;6.120;2022-09-09T05:58:13;9.27;;;2.37;;
12910;SDS011;6523;49.758;6.120;2022-09-09T06:00:41;7.43;;;1.90;;
12910;SDS011;6523;49.758;6.120;2022-09-09T06:03:09;8.37;;;2.40;;
12910;SDS011;6523;49.758;6.120;2022-09-09T06:05:36;5.33;;;1.93;;
12910;SDS011;6523;49.758;6.120;2022-09-09T06:08:02;9.73;;;2.40;;
12910;SDS011;6523;49.758;6.120;2022-09-09T06:10:28;8.00;;;2.63;;
12910;SDS011;6523;49.758;6.120;2022-09-09T06:12:54;3.70;;;2.03;;
12910;SDS011;6523;49.758;6.120;2022-09-09T06:15:19;4.53;;;1.67;;
12910;SDS011;6523;49.758;6.120;2022-09-09T06:17:45;7.50;;;2.00;;
12910;SDS011;6523;49.758;6.120;2022-09-09T06:20:10;6.13;;;1.93;;
12910;SDS011;6523;49.758;6.120;2022-09-09T06:22:39;7.97;;;2.37;;
12910;SDS011;6523;49.758;6.120;2022-09-09T06:25:06;6.77;;;2.50;;
12910;SDS011;6523;49.758;6.120;2022-09-09T06:27:33;4.80;;;2.00;;
12910;SDS011;6523;49.758;6.120;2022-09-09T06:29:58;8.63;;;2.03;;
12910;SDS011;6523;49.758;6.120;2022-09-09T06:32:24;7.60;;;2.07;;
12910;SDS011;6523;49.758;6.120;2022-09-09T06:34:51;4.50;;;1.80;;
12910;SDS011;6523;49.758;6.120;2022-09-09T06:37:17;5.30;;;1.53;;
12910;SDS011;6523;49.758;6.120;2022-09-09T06:39:43;8.40;;;1.83;;
12910;SDS011;6523;49.758;6.120;2022-09-09T06:42:09;6.47;;;2.13;;
12910;SDS011;6523;49.758;6.120;2022-09-09T06:44:34;6.47;;;1.80;;
12910;SDS011;6523;49.758;6.120;2022-09-09T06:47:01;5.47;;;2.10;;
12910;SDS011;6523;49.758;6.120;2022-09-09T06:49:27;8.67;;;1.87;;
12910;SDS011;6523;49.758;6.120;2022-09-09T06:51:52;5.27;;;2.00;;
12910;SDS011;6523;49.758;6.120;2022-09-09T06:54:19;5.93;;;2.00;;
12910;SDS011;6523;49.758;6.120;2022-09-09T06:56:45;5.57;;;1.87;;
12910;SDS011;6523;49.758;6.120;2022-09-09T06:59:10;8.00;;;2.33;;
12910;SDS011;6523;49.758;6.120;2022-09-09T07:01:37;8.17;;;2.23;;
12910;SDS011;6523;49.758;6.120;2022-09-09T07:04:05;8.40;;;2.10;;
12910;SDS011;6523;49.758;6.120;2022-09-09T07:06:40;7.30;;;2.50;;
12910;SDS011;6523;49.758;6.120;2022-09-09T07:09:09;5.20;;;2.00;;
12910;SDS011;6523;49.758;6.120;2022-09-09T07:11:40;5.00;;;1.83;;
12910;SDS011;6523;49.758;6.120;2022-09-09T07:14:07;6.30;;;2.27;;
12910;SDS011;6523;49.758;6.120;2022-09-09T07:16:33;5.90;;;2.20;;
12910;SDS011;6523;49.758;6.120;2022-09-09T07:19:02;5.17;;;2.00;;
12910;SDS011;6523;49.758;6.120;2022-09-09T07:21:29;10.87;;;2.07;;
12910;SDS011;6523;49.758;6.120;2022-09-09T07:23:56;5.23;;;1.70;;
12910;SDS011;6523;49.758;6.120;2022-09-09T07:26:23;6.90;;;1.83;;
12910;SDS011;6523;49.758;6.120;2022-09-09T07:28:50;7.80;;;2.10;;
12910;SDS011;6523;49.758;6.120;2022-09-09T07:31:17;4.43;;;1.77;;
12910;SDS011;6523;49.758;6.120;2022-09-09T07:33:45;7.50;;;1.80;;
12910;SDS011;6523;49.758;6.120;2022-09-09T07:38:40;8.27;;;2.00;;
12910;SDS011;6523;49.758;6.120;2022-09-09T07:41:08;5.57;;;1.80;;
12910;SDS011;6523;49.758;6.120;2022-09-09T07:43:39;6.57;;;1.77;;
12910;SDS011;6523;49.758;6.120;2022-09-09T07:46:05;7.70;;;1.87;;
12910;SDS011;6523;49.758;6.120;2022-09-09T07:48:31;8.63;;;1.67;;
12910;SDS011;6523;49.758;6.120;2022-09-09T07:51:07;7.57;;;2.13;;
12910;SDS011;6523;49.758;6.120;2022-09-09T07:53:36;5.43;;;1.80;;
12910;SDS011;6523;49.758;6.120;2022-09-09T07:56:07;9.70;;;2.20;;
12910;SDS011;6523;49.758;6.120;2022-09-09T07:58:35;6.03;;;2.00;;
12910;SDS011;6523;49.758;6.120;2022-09-09T08:01:09;9.47;;;2.00;;
12910;SDS011;6523;49.758;6.120;2022-09-09T08:03:39;5.07;;;2.10;;
12910;SDS011;6523;49.758;6.120;2022-09-09T08:06:07;8.30;;;2.10;;
12910;SDS011;6523;49.758;6.120;2022-09-09T08:08:34;6.67;;;2.00;;
12910;SDS011;6523;49.758;6.120;2022-09-09T08:11:11;5.23;;;1.90;;
12910;SDS011;6523;49.758;6.120;2022-09-09T08:13:39;4.77;;;1.87;;
12910;SDS011;6523;49.758;6.120;2022-09-09T08:16:09;7.70;;;2.27;;
12910;SDS011;6523;49.758;6.120;2022-09-09T08:18:37;5.17;;;1.63;;
12910;SDS011;6523;49.758;6.120;2022-09-09T08:23:40;7.27;;;1.93;;
12910;SDS011;6523;49.758;6.120;2022-09-09T08:26:10;6.83;;;1.73;;
12910;SDS011;6523;49.758;6.120;2022-09-09T08:28:38;19.53;;;3.60;;
12910;SDS011;6523;49.758;6.120;2022-09-09T08:31:15;6.47;;;2.27;;
12910;SDS011;6523;49.758;6.120;2022-09-09T08:33:46;6.20;;;1.80;;
12910;SDS011;6523;49.758;6.120;2022-09-09T08:36:13;8.20;;;1.80;;
12910;SDS011;6523;49.758;6.120;2022-09-09T08:38:41;7.23;;;1.97;;
12910;SDS011;6523;49.758;6.120;2022-09-09T08:44:07;4.10;;;2.10;;
12910;SDS011;6523;49.758;6.120;2022-09-09T08:49:55;5.10;;;1.53;;
12910;SDS011;6523;49.758;6.120;2022-09-09T08:52:47;5.13;;;1.33;;
12910;SDS011;6523;49.758;6.120;2022-09-09T08:58:17;5.73;;;1.90;;
12910;SDS011;6523;49.758;6.120;2022-09-09T09:00:58;5.67;;;1.73;;
12910;SDS011;6523;49.758;6.120;2022-09-09T09:11:39;5.17;;;2.43;;
12910;SDS011;6523;49.758;6.120;2022-09-09T09:19:34;4.57;;;1.30;;
12910;SDS011;6523;49.758;6.120;2022-09-09T09:22:17;4.03;;;1.23;;
12910;SDS011;6523;49.758;6.120;2022-09-09T09:27:40;5.83;;;1.23;;
12910;SDS011;6523;49.758;6.120;2022-09-09T09:30:20;4.40;;;1.70;;
12910;SDS011;6523;49.758;6.120;2022-09-09T09:32:55;5.03;;;1.60;;
12910;SDS011;6523;49.758;6.120;2022-09-09T09:35:45;4.30;;;1.60;;
12910;SDS011;6523;49.758;6.120;2022-09-09T09:40:50;5.70;;;1.30;;
12910;SDS011;6523;49.758;6.120;2022-09-09T09:43:29;4.37;;;1.40;;
12910;SDS011;6523;49.758;6.120;2022-09-09T09:45:59;2.70;;;1.30;;
12910;SDS011;6523;49.758;6.120;2022-09-09T09:48:25;4.63;;;1.73;;
12910;SDS011;6523;49.758;6.120;2022-09-09T09:50:55;5.00;;;1.60;;
12910;SDS011;6523;49.758;6.120;2022-09-09T09:53:26;3.03;;;1.33;;
12910;SDS011;6523;49.758;6.120;2022-09-09T09:56:04;10.20;;;1.63;;
12910;SDS011;6523;49.758;6.120;2022-09-09T09:58:32;6.97;;;1.60;;
12910;SDS011;6523;49.758;6.120;2022-09-09T10:01:24;5.67;;;1.50;;
12910;SDS011;6523;49.758;6.120;2022-09-09T10:04:00;4.43;;;1.47;;
12910;SDS011;6523;49.758;6.120;2022-09-09T10:06:34;6.37;;;1.40;;
12910;SDS011;6523;49.758;6.120;2022-09-09T10:09:24;3.13;;;1.50;;
12910;SDS011;6523;49.758;6.120;2022-09-09T10:11:57;4.80;;;1.47;;
12910;SDS011;6523;49.758;6.120;2022-09-09T10:14:50;4.70;;;1.33;;
12910;SDS011;6523;49.758;6.120;2022-09-09T10:20:35;5.00;;;1.67;;
12910;SDS011;6523;49.758;6.120;2022-09-09T10:25:51;4.60;;;1.60;;
12910;SDS011;6523;49.758;6.120;2022-09-09T10:31:41;4.50;;;1.50;;
12910;SDS011;6523;49.758;6.120;2022-09-09T10:36:54;2.90;;;1.30;;
12910;SDS011;6523;49.758;6.120;2022-09-09T10:39:33;5.07;;;1.57;;
12910;SDS011;6523;49.758;6.120;2022-09-09T10:42:05;4.73;;;1.70;;
12910;SDS011;6523;49.758;6.120;2022-09-09T10:52:58;4.43;;;1.27;;
12910;SDS011;6523;49.758;6.120;2022-09-09T10:55:41;4.37;;;1.30;;
12910;SDS011;6523;49.758;6.120;2022-09-09T10:58:31;3.33;;;1.17;;
12910;SDS011;6523;49.758;6.120;2022-09-09T11:01:18;8.37;;;1.90;;
12910;SDS011;6523;49.758;6.120;2022-09-09T11:04:01;2.53;;;1.27;;
12910;SDS011;6523;49.758;6.120;2022-09-09T11:06:39;5.63;;;1.27;;
12910;SDS011;6523;49.758;6.120;2022-09-09T11:09:13;3.67;;;1.20;;
12910;SDS011;6523;49.758;6.120;2022-09-09T11:11:44;2.90;;;1.30;;
12910;SDS011;6523;49.758;6.120;2022-09-09T11:14:19;5.10;;;1.73;;
12910;SDS011;6523;49.758;6.120;2022-09-09T11:17:12;5.13;;;1.47;;
12910;SDS011;6523;49.758;6.120;2022-09-09T11:19:47;1.77;;;0.97;;
12910;SDS011;6523;49.758;6.120;2022-09-09T11:24:56;4.63;;;1.17;;
12910;SDS011;6523;49.758;6.120;2022-09-09T11:36:05;2.47;;;0.80;;
12910;SDS011;6523;49.758;6.120;2022-09-09T11:41:08;3.90;;;1.30;;
12910;SDS011;6523;49.758;6.120;2022-09-09T11:43:44;2.20;;;1.00;;
12910;SDS011;6523;49.758;6.120;2022-09-09T11:46:13;3.27;;;0.80;;
12910;SDS011;6523;49.758;6.120;2022-09-09T11:48:42;4.13;;;1.03;;
12910;SDS011;6523;49.758;6.120;2022-09-09T11:51:25;6.13;;;1.37;;
12910;SDS011;6523;49.758;6.120;2022-09-09T11:53:52;2.40;;;1.00;;
12910;SDS011;6523;49.758;6.120;2022-09-09T11:56:32;2.07;;;1.00;;
12910;SDS011;6523;49.758;6.120;2022-09-09T11:59:21;1.43;;;0.97;;
12910;SDS011;6523;49.758;6.120;2022-09-09T12:06:54;4.17;;;0.90;;
12910;SDS011;6523;49.758;6.120;2022-09-09T12:09:29;3.83;;;1.10;;
12910;SDS011;6523;49.758;6.120;2022-09-09T12:14:43;5.00;;;1.10;;
12910;SDS011;6523;49.758;6.120;2022-09-09T12:17:23;3.73;;;1.10;;
12910;SDS011;6523;49.758;6.120;2022-09-09T12:25:43;4.97;;;1.10;;
12910;SDS011;6523;49.758;6.120;2022-09-09T12:28:19;5.43;;;1.50;;
12910;SDS011;6523;49.758;6.120;2022-09-09T12:33:46;2.03;;;1.00;;
12910;SDS011;6523;49.758;6.120;2022-09-09T12:36:31;3.63;;;1.00;;
12910;SDS011;6523;49.758;6.120;2022-09-09T12:38:58;2.57;;;1.20;;
12910;SDS011;6523;49.758;6.120;2022-09-09T12:42:01;3.73;;;1.20;;
12910;SDS011;6523;49.758;6.120;2022-09-09T12:44:28;2.77;;;1.10;;
12910;SDS011;6523;49.758;6.120;2022-09-09T12:46:55;2.40;;;0.93;;
12910;SDS011;6523;49.758;6.120;2022-09-09T12:49:37;3.70;;;1.20;;
12910;SDS011;6523;49.758;6.120;2022-09-09T12:52:07;3.20;;;1.10;;
12910;SDS011;6523;49.758;6.120;2022-09-09T12:54:46;2.63;;;0.97;;
12910;SDS011;6523;49.758;6.120;2022-09-09T12:57:12;4.70;;;1.27;;
12910;SDS011;6523;49.758;6.120;2022-09-09T12:59:41;3.43;;;1.13;;
12910;SDS011;6523;49.758;6.120;2022-09-09T13:02:23;5.80;;;1.30;;
12910;SDS011;6523;49.758;6.120;2022-09-09T13:04:50;3.90;;;1.43;;
12910;SDS011;6523;49.758;6.120;2022-09-09T13:07:17;5.23;;;1.27;;
12910;SDS011;6523;49.758;6.120;2022-09-09T13:09:44;3.43;;;1.40;;
12910;SDS011;6523;49.758;6.120;2022-09-09T13:12:15;3.60;;;1.30;;
12910;SDS011;6523;49.758;6.120;2022-09-09T13:14:44;4.07;;;1.60;;
12910;SDS011;6523;49.758;6.120;2022-09-09T13:17:31;3.83;;;1.50;;
12910;SDS011;6523;49.758;6.120;2022-09-09T13:19:57;5.17;;;1.70;;
12910;SDS011;6523;49.758;6.120;2022-09-09T13:22:35;4.70;;;1.50;;
12910;SDS011;6523;49.758;6.120;2022-09-09T13:27:40;3.97;;;1.40;;
12910;SDS011;6523;49.758;6.120;2022-09-09T13:38:14;3.33;;;1.30;;
12910;SDS011;6523;49.758;6.120;2022-09-09T13:40:51;4.43;;;1.23;;
12910;SDS011;6523;49.758;6.120;2022-09-09T13:43:22;2.33;;;1.27;;
12910;SDS011;6523;49.758;6.120;2022-09-09T13:45:53;3.17;;;1.23;;
12910;SDS011;6523;49.758;6.120;2022-09-09T13:48:23;3.23;;;1.00;;
12910;SDS011;6523;49.758;6.120;2022-09-09T13:50:54;2.33;;;1.10;;
12910;SDS011;6523;49.758;6.120;2022-09-09T13:53:21;2.50;;;1.20;;
12910;SDS011;6523;49.758;6.120;2022-09-09T13:55:46;3.13;;;1.03;;
12910;SDS011;6523;49.758;6.120;2022-09-09T13:58:15;2.20;;;0.83;;
12910;SDS011;6523;49.758;6.120;2022-09-09T14:00:43;5.13;;;1.40;;
12910;SDS011;6523;49.758;6.120;2022-09-09T14:03:10;2.20;;;1.50;;
12910;SDS011;6523;49.758;6.120;2022-09-09T14:05:36;5.67;;;1.20;;
12910;SDS011;6523;49.758;6.120;2022-09-09T14:08:05;2.80;;;1.40;;
12910;SDS011;6523;49.758;6.120;2022-09-09T14:10:33;1.80;;;1.13;;
12910;SDS011;6523;49.758;6.120;2022-09-09T14:13:02;3.17;;;1.43;;
12910;SDS011;6523;49.758;6.120;2022-09-09T14:15:28;3.23;;;1.40;;
12910;SDS011;6523;49.758;6.120;2022-09-09T14:17:54;1.57;;;1.30;;
12910;SDS011;6523;49.758;6.120;2022-09-09T14:20:20;2.97;;;1.17;;
12910;SDS011;6523;49.758;6.120;2022-09-09T14:22:46;2.67;;;1.40;;
12910;SDS011;6523;49.758;6.120;2022-09-09T14:25:11;1.40;;;1.30;;
12910;SDS011;6523;49.758;6.120;2022-09-09T14:27:40;2.20;;;1.27;;
12910;SDS011;6523;49.758;6.120;2022-09-09T14:30:07;3.20;;;1.20;;
12910;SDS011;6523;49.758;6.120;2022-09-09T14:32:34;2.63;;;1.30;;
12910;SDS011;6523;49.758;6.120;2022-09-09T14:34:59;6.03;;;1.20;;
12910;SDS011;6523;49.758;6.120;2022-09-09T14:37:26;2.73;;;1.40;;
12910;SDS011;6523;49.758;6.120;2022-09-09T14:39:52;4.00;;;1.63;;
12910;SDS011;6523;49.758;6.120;2022-09-09T14:42:19;3.27;;;1.30;;
12910;SDS011;6523;49.758;6.120;2022-09-09T14:44:44;2.70;;;1.57;;
12910;SDS011;6523;49.758;6.120;2022-09-09T14:47:10;3.90;;;1.30;;
12910;SDS011;6523;49.758;6.120;2022-09-09T14:49:36;3.17;;;1.20;;
12910;SDS011;6523;49.758;6.120;2022-09-09T14:52:03;3.30;;;1.23;;
12910;SDS011;6523;49.758;6.120;2022-09-09T14:54:29;2.30;;;1.43;;
12910;SDS011;6523;49.758;6.120;2022-09-09T14:56:58;3.90;;;1.27;;
12910;SDS011;6523;49.758;6.120;2022-09-09T14:59:24;4.10;;;1.30;;
12910;SDS011;6523;49.758;6.120;2022-09-09T15:01:50;1.67;;;1.10;;
12910;SDS011;6523;49.758;6.120;2022-09-09T15:04:15;4.90;;;1.70;;
12910;SDS011;6523;49.758;6.120;2022-09-09T15:06:42;4.30;;;1.80;;
12910;SDS011;6523;49.758;6.120;2022-09-09T15:09:09;3.50;;;1.40;;
12910;SDS011;6523;49.758;6.120;2022-09-09T15:11:36;2.47;;;1.60;;
12910;SDS011;6523;49.758;6.120;2022-09-09T15:14:03;2.93;;;1.23;;
12910;SDS011;6523;49.758;6.120;2022-09-09T15:16:29;3.17;;;1.27;;
12910;SDS011;6523;49.758;6.120;2022-09-09T15:18:57;2.30;;;1.37;;
12910;SDS011;6523;49.758;6.120;2022-09-09T15:21:24;2.33;;;1.20;;
12910;SDS011;6523;49.758;6.120;2022-09-09T15:23:51;2.20;;;1.30;;
12910;SDS011;6523;49.758;6.120;2022-09-09T15:26:18;3.60;;;1.30;;
12910;SDS011;6523;49.758;6.120;2022-09-09T15:28:45;1.57;;;1.47;;
12910;SDS011;6523;49.758;6.120;2022-09-09T15:31:15;2.50;;;1.10;;
12910;SDS011;6523;49.758;6.120;2022-09-09T15:33:47;1.90;;;0.93;;
12910;SDS011;6523;49.758;6.120;2022-09-09T15:36:15;1.33;;;1.00;;
12910;SDS011;6523;49.758;6.120;2022-09-09T15:38:43;1.83;;;0.90;;
12910;SDS011;6523;49.758;6.120;2022-09-09T15:41:09;1.90;;;0.80;;
12910;SDS011;6523;49.758;6.120;2022-09-09T15:43:35;1.37;;;0.83;;
12910;SDS011;6523;49.758;6.120;2022-09-09T15:46:05;2.20;;;1.23;;
12910;SDS011;6523;49.758;6.120;2022-09-09T15:48:42;1.23;;;0.93;;
12910;SDS011;6523;49.758;6.120;2022-09-09T15:51:09;2.43;;;0.93;;
12910;SDS011;6523;49.758;6.120;2022-09-09T15:53:35;2.93;;;1.37;;
12910;SDS011;6523;49.758;6.120;2022-09-09T15:56:04;3.47;;;0.90;;
12910;SDS011;6523;49.758;6.120;2022-09-09T15:58:33;3.97;;;1.23;;
12910;SDS011;6523;49.758;6.120;2022-09-09T16:01:03;2.27;;;1.10;;
12910;SDS011;6523;49.758;6.120;2022-09-09T16:03:37;2.97;;;1.80;;
12910;SDS011;6523;49.758;6.120;2022-09-09T16:06:04;1.47;;;0.93;;
12910;SDS011;6523;49.758;6.120;2022-09-09T16:08:34;3.60;;;1.17;;
12910;SDS011;6523;49.758;6.120;2022-09-09T16:11:05;4.47;;;1.40;;
12910;SDS011;6523;49.758;6.120;2022-09-09T16:13:36;3.50;;;1.13;;
12910;SDS011;6523;49.758;6.120;2022-09-09T16:16:02;2.80;;;1.20;;
12910;SDS011;6523;49.758;6.120;2022-09-09T16:18:36;2.23;;;1.00;;
12910;SDS011;6523;49.758;6.120;2022-09-09T16:21:04;2.90;;;1.27;;
12910;SDS011;6523;49.758;6.120;2022-09-09T16:23:34;3.20;;;1.10;;
12910;SDS011;6523;49.758;6.120;2022-09-09T16:26:00;2.50;;;1.20;;
12910;SDS011;6523;49.758;6.120;2022-09-09T16:28:26;2.77;;;1.23;;
12910;SDS011;6523;49.758;6.120;2022-09-09T16:30:52;2.53;;;1.20;;
12910;SDS011;6523;49.758;6.120;2022-09-09T16:33:18;1.33;;;1.23;;
12910;SDS011;6523;49.758;6.120;2022-09-09T16:35:43;3.93;;;1.50;;
12910;SDS011;6523;49.758;6.120;2022-09-09T16:38:09;2.97;;;1.30;;
12910;SDS011;6523;49.758;6.120;2022-09-09T16:40:36;3.23;;;1.00;;
12910;SDS011;6523;49.758;6.120;2022-09-09T16:43:02;2.10;;;1.00;;
12910;SDS011;6523;49.758;6.120;2022-09-09T16:45:31;1.97;;;0.97;;
12910;SDS011;6523;49.758;6.120;2022-09-09T16:47:57;3.53;;;1.30;;
12910;SDS011;6523;49.758;6.120;2022-09-09T16:50:24;4.40;;;1.30;;
12910;SDS011;6523;49.758;6.120;2022-09-09T16:52:50;1.67;;;1.10;;
12910;SDS011;6523;49.758;6.120;2022-09-09T16:55:17;1.53;;;1.20;;
12910;SDS011;6523;49.758;6.120;2022-09-09T16:57:45;2.70;;;1.10;;
12910;SDS011;6523;49.758;6.120;2022-09-09T17:00:13;3.37;;;1.20;;
12910;SDS011;6523;49.758;6.120;2022-09-09T17:02:40;3.00;;;1.30;;
12910;SDS011;6523;49.758;6.120;2022-09-09T17:05:05;2.67;;;1.43;;
12910;SDS011;6523;49.758;6.120;2022-09-09T17:07:31;2.80;;;1.00;;
12910;SDS011;6523;49.758;6.120;2022-09-09T17:09:57;2.50;;;1.13;;
12910;SDS011;6523;49.758;6.120;2022-09-09T17:12:22;2.40;;;0.90;;
12910;SDS011;6523;49.758;6.120;2022-09-09T17:14:49;4.00;;;1.10;;
12910;SDS011;6523;49.758;6.120;2022-09-09T17:17:15;2.53;;;0.77;;
12910;SDS011;6523;49.758;6.120;2022-09-09T17:19:42;2.53;;;1.10;;
12910;SDS011;6523;49.758;6.120;2022-09-09T17:22:07;2.47;;;1.30;;
12910;SDS011;6523;49.758;6.120;2022-09-09T17:24:33;1.57;;;1.00;;
12910;SDS011;6523;49.758;6.120;2022-09-09T17:26:59;3.67;;;1.10;;
12910;SDS011;6523;49.758;6.120;2022-09-09T17:29:27;2.10;;;1.13;;
12910;SDS011;6523;49.758;6.120;2022-09-09T17:31:52;3.23;;;1.33;;
12910;SDS011;6523;49.758;6.120;2022-09-09T17:34:19;4.30;;;1.17;;